sensor_id;sensor_type;location;lat;lon;timestamp;P1;durP1;ratioP1;P2;durP2;ratioP2
7989;SDS011;4040;42.848;23.034;2023-07-13T00:09:48;5.38;;;4.20;;
7989;SDS011;4040;42.848;23.034;2023-07-13T00:15:39;8.57;;;4.78;;
7989;SDS011;4040;42.848;23.034;2023-07-13T00:21:28;5.13;;;4.35;;
7989;SDS011;4040;42.848;23.034;2023-07-13T00:27:17;5.18;;;4.15;;
7989;SDS011;4040;42.848;23.034;2023-07-13T00:33:07;8.18;;;4.93;;
7989;SDS011;4040;42.848;23.034;2023-07-13T00:38:56;5.28;;;4.40;;
7989;SDS011;4040;42.848;23.034;2023-07-13T00:50:58;7.07;;;4.72;;
7989;SDS011;4040;42.848;23.034;2023-07-13T00:56:48;4.60;;;4.10;;
7989;SDS011;4040;42.848;23.034;2023-07-13T01:02:41;5.90;;;4.93;;
7989;SDS011;4040;42.848;23.034;2023-07-13T01:12:55;5.20;;;4.68;;
7989;SDS011;4040;42.848;23.034;2023-07-13T01:18:46;7.13;;;4.55;;
7989;SDS011;4040;42.848;23.034;2023-07-13T01:24:36;6.13;;;4.78;;
7989;SDS011;4040;42.848;23.034;2023-07-13T01:30:26;5.07;;;3.97;;
7989;SDS011;4040;42.848;23.034;2023-07-13T01:36:15;6.95;;;5.03;;
7989;SDS011;4040;42.848;23.034;2023-07-13T01:42:05;5.43;;;4.57;;
7989;SDS011;4040;42.848;23.034;2023-07-13T01:47:54;5.63;;;4.85;;
7989;SDS011;4040;42.848;23.034;2023-07-13T01:53:43;5.60;;;4.25;;
7989;SDS011;4040;42.848;23.034;2023-07-13T01:59:34;5.90;;;4.47;;
7989;SDS011;4040;42.848;23.034;2023-07-13T02:05:22;5.40;;;4.53;;
7989;SDS011;4040;42.848;23.034;2023-07-13T02:15:37;5.72;;;4.60;;
7989;SDS011;4040;42.848;23.034;2023-07-13T02:21:28;5.15;;;4.38;;
7989;SDS011;4040;42.848;23.034;2023-07-13T02:23:55;5.35;;;4.55;;
7989;SDS011;4040;42.848;23.034;2023-07-13T02:29:44;4.70;;;4.20;;
7989;SDS011;4040;42.848;23.034;2023-07-13T02:35:34;6.97;;;5.00;;
7989;SDS011;4040;42.848;23.034;2023-07-13T02:41:22;6.28;;;4.80;;
7989;SDS011;4040;42.848;23.034;2023-07-13T02:47:11;6.13;;;4.60;;
7989;SDS011;4040;42.848;23.034;2023-07-13T02:53:02;5.28;;;4.78;;
7989;SDS011;4040;42.848;23.034;2023-07-13T02:58:50;7.47;;;4.90;;
7989;SDS011;4040;42.848;23.034;2023-07-13T03:04:40;7.28;;;4.53;;
7989;SDS011;4040;42.848;23.034;2023-07-13T03:10:30;12.05;;;5.28;;
7989;SDS011;4040;42.848;23.034;2023-07-13T03:16:19;8.80;;;4.80;;
7989;SDS011;4040;42.848;23.034;2023-07-13T03:22:08;8.07;;;5.20;;
7989;SDS011;4040;42.848;23.034;2023-07-13T03:27:58;6.32;;;4.85;;
7989;SDS011;4040;42.848;23.034;2023-07-13T03:33:46;6.78;;;4.90;;
7989;SDS011;4040;42.848;23.034;2023-07-13T03:39:36;10.45;;;5.15;;
7989;SDS011;4040;42.848;23.034;2023-07-13T03:45:26;9.18;;;5.35;;
7989;SDS011;4040;42.848;23.034;2023-07-13T03:51:15;5.60;;;4.60;;
7989;SDS011;4040;42.848;23.034;2023-07-13T03:57:05;10.57;;;5.63;;
7989;SDS011;4040;42.848;23.034;2023-07-13T04:02:55;7.97;;;5.15;;
7989;SDS011;4040;42.848;23.034;2023-07-13T04:08:44;8.15;;;5.38;;
7989;SDS011;4040;42.848;23.034;2023-07-13T04:18:56;7.57;;;5.60;;
7989;SDS011;4040;42.848;23.034;2023-07-13T04:24:46;9.07;;;6.47;;
7989;SDS011;4040;42.848;23.034;2023-07-13T04:30:35;8.00;;;6.32;;
7989;SDS011;4040;42.848;23.034;2023-07-13T04:36:25;11.45;;;6.50;;
7989;SDS011;4040;42.848;23.034;2023-07-13T04:42:15;7.72;;;5.50;;
7989;SDS011;4040;42.848;23.034;2023-07-13T04:48:03;6.15;;;5.38;;
7989;SDS011;4040;42.848;23.034;2023-07-13T04:53:54;8.63;;;5.00;;
7989;SDS011;4040;42.848;23.034;2023-07-13T04:59:42;8.95;;;5.40;;
7989;SDS011;4040;42.848;23.034;2023-07-13T05:05:31;6.35;;;4.95;;
7989;SDS011;4040;42.848;23.034;2023-07-13T05:11:22;9.23;;;5.35;;
7989;SDS011;4040;42.848;23.034;2023-07-13T05:21:32;6.22;;;5.35;;
7989;SDS011;4040;42.848;23.034;2023-07-13T05:27:22;6.22;;;5.55;;
7989;SDS011;4040;42.848;23.034;2023-07-13T05:33:11;8.27;;;4.50;;
7989;SDS011;4040;42.848;23.034;2023-07-13T05:39:00;6.70;;;4.43;;
7989;SDS011;4040;42.848;23.034;2023-07-13T05:44:50;5.05;;;4.55;;
7989;SDS011;4040;42.848;23.034;2023-07-13T05:50:38;6.97;;;4.97;;
7989;SDS011;4040;42.848;23.034;2023-07-13T05:56:27;17.15;;;4.88;;
7989;SDS011;4040;42.848;23.034;2023-07-13T05:58:55;12.70;;;5.15;;
7989;SDS011;4040;42.848;23.034;2023-07-13T06:04:46;18.90;;;4.97;;
7989;SDS011;4040;42.848;23.034;2023-07-13T06:10:34;10.93;;;5.38;;
7989;SDS011;4040;42.848;23.034;2023-07-13T06:16:24;8.13;;;5.50;;
7989;SDS011;4040;42.848;23.034;2023-07-13T06:22:14;15.60;;;6.00;;
7989;SDS011;4040;42.848;23.034;2023-07-13T06:28:02;12.13;;;5.45;;
7989;SDS011;4040;42.848;23.034;2023-07-13T06:33:52;14.10;;;5.78;;
7989;SDS011;4040;42.848;23.034;2023-07-13T06:39:42;13.20;;;4.65;;
7989;SDS011;4040;42.848;23.034;2023-07-13T06:45:32;9.18;;;4.93;;
7989;SDS011;4040;42.848;23.034;2023-07-13T06:51:23;4.88;;;4.20;;
7989;SDS011;4040;42.848;23.034;2023-07-13T06:57:14;6.47;;;4.18;;
7989;SDS011;4040;42.848;23.034;2023-07-13T07:03:02;5.88;;;4.45;;
7989;SDS011;4040;42.848;23.034;2023-07-13T07:08:51;5.85;;;5.03;;
7989;SDS011;4040;42.848;23.034;2023-07-13T07:14:42;5.45;;;4.68;;
7989;SDS011;4040;42.848;23.034;2023-07-13T07:24:53;5.45;;;4.20;;
7989;SDS011;4040;42.848;23.034;2023-07-13T07:30:43;8.20;;;4.90;;
7989;SDS011;4040;42.848;23.034;2023-07-13T07:36:32;6.93;;;4.45;;
7989;SDS011;4040;42.848;23.034;2023-07-13T07:42:21;4.25;;;3.80;;
7989;SDS011;4040;42.848;23.034;2023-07-13T07:48:11;4.82;;;4.43;;
7989;SDS011;4040;42.848;23.034;2023-07-13T07:54:00;4.10;;;3.58;;
7989;SDS011;4040;42.848;23.034;2023-07-13T07:59:49;4.43;;;3.08;;
7989;SDS011;4040;42.848;23.034;2023-07-13T08:05:39;3.88;;;3.55;;
7989;SDS011;4040;42.848;23.034;2023-07-13T08:11:27;5.72;;;3.90;;
7989;SDS011;4040;42.848;23.034;2023-07-13T08:17:16;3.42;;;3.13;;
7989;SDS011;4040;42.848;23.034;2023-07-13T08:27:28;4.53;;;3.42;;
7989;SDS011;4040;42.848;23.034;2023-07-13T08:33:17;4.25;;;3.85;;
7989;SDS011;4040;42.848;23.034;2023-07-13T08:39:06;4.18;;;3.70;;
7989;SDS011;4040;42.848;23.034;2023-07-13T08:44:57;3.78;;;3.47;;
7989;SDS011;4040;42.848;23.034;2023-07-13T08:50:55;4.35;;;3.95;;
7989;SDS011;4040;42.848;23.034;2023-07-13T08:56:58;5.00;;;3.90;;
7989;SDS011;4040;42.848;23.034;2023-07-13T09:02:52;4.20;;;3.80;;
7989;SDS011;4040;42.848;23.034;2023-07-13T09:08:48;4.00;;;2.90;;
7989;SDS011;4040;42.848;23.034;2023-07-13T09:14:45;5.35;;;3.33;;
7989;SDS011;4040;42.848;23.034;2023-07-13T09:20:38;4.00;;;3.60;;
7989;SDS011;4040;42.848;23.034;2023-07-13T09:23:12;4.68;;;3.90;;
7989;SDS011;4040;42.848;23.034;2023-07-13T09:29:14;5.78;;;3.63;;
7989;SDS011;4040;42.848;23.034;2023-07-13T09:35:09;4.10;;;3.20;;
7989;SDS011;4040;42.848;23.034;2023-07-13T09:41:03;4.68;;;3.70;;
7989;SDS011;4040;42.848;23.034;2023-07-13T09:47:02;4.63;;;3.70;;
7989;SDS011;4040;42.848;23.034;2023-07-13T09:49:38;6.38;;;3.42;;
7989;SDS011;4040;42.848;23.034;2023-07-13T09:55:29;3.75;;;3.42;;
7989;SDS011;4040;42.848;23.034;2023-07-13T10:01:32;3.92;;;3.53;;
7989;SDS011;4040;42.848;23.034;2023-07-13T10:07:22;5.32;;;3.40;;
7989;SDS011;4040;42.848;23.034;2023-07-13T10:13:24;3.55;;;3.20;;
7989;SDS011;4040;42.848;23.034;2023-07-13T10:19:17;5.55;;;3.40;;
7989;SDS011;4040;42.848;23.034;2023-07-13T10:29:20;4.10;;;3.30;;
7989;SDS011;4040;42.848;23.034;2023-07-13T10:35:16;10.00;;;4.40;;
7989;SDS011;4040;42.848;23.034;2023-07-13T10:41:09;3.72;;;3.40;;
7989;SDS011;4040;42.848;23.034;2023-07-13T10:47:04;5.22;;;3.45;;
7989;SDS011;4040;42.848;23.034;2023-07-13T10:53:00;6.72;;;3.80;;
7989;SDS011;4040;42.848;23.034;2023-07-13T10:59:01;4.15;;;3.67;;
7989;SDS011;4040;42.848;23.034;2023-07-13T11:05:12;4.45;;;3.63;;
7989;SDS011;4040;42.848;23.034;2023-07-13T11:17:35;5.68;;;3.85;;
7989;SDS011;4040;42.848;23.034;2023-07-13T11:23:30;4.70;;;3.63;;
7989;SDS011;4040;42.848;23.034;2023-07-13T11:29:24;5.75;;;4.13;;
7989;SDS011;4040;42.848;23.034;2023-07-13T11:35:27;5.30;;;3.45;;
7989;SDS011;4040;42.848;23.034;2023-07-13T11:41:17;4.28;;;3.70;;
7989;SDS011;4040;42.848;23.034;2023-07-13T11:47:11;5.80;;;3.97;;
7989;SDS011;4040;42.848;23.034;2023-07-13T11:53:08;8.35;;;5.03;;
7989;SDS011;4040;42.848;23.034;2023-07-13T11:59:02;4.68;;;4.15;;
7989;SDS011;4040;42.848;23.034;2023-07-13T12:04:55;6.95;;;3.78;;
7989;SDS011;4040;42.848;23.034;2023-07-13T12:10:44;5.38;;;4.00;;
7989;SDS011;4040;42.848;23.034;2023-07-13T12:16:34;5.55;;;3.75;;
7989;SDS011;4040;42.848;23.034;2023-07-13T12:22:24;3.95;;;3.55;;
7989;SDS011;4040;42.848;23.034;2023-07-13T12:32:35;7.55;;;4.15;;
7989;SDS011;4040;42.848;23.034;2023-07-13T12:38:26;5.57;;;4.43;;
7989;SDS011;4040;42.848;23.034;2023-07-13T12:44:16;4.93;;;3.90;;
7989;SDS011;4040;42.848;23.034;2023-07-13T12:50:12;4.53;;;3.58;;
7989;SDS011;4040;42.848;23.034;2023-07-13T12:56:05;5.28;;;4.30;;
7989;SDS011;4040;42.848;23.034;2023-07-13T13:01:53;4.45;;;3.92;;
7989;SDS011;4040;42.848;23.034;2023-07-13T13:07:42;5.63;;;3.65;;
7989;SDS011;4040;42.848;23.034;2023-07-13T13:13:35;4.82;;;3.95;;
7989;SDS011;4040;42.848;23.034;2023-07-13T13:19:25;7.97;;;4.25;;
7989;SDS011;4040;42.848;23.034;2023-07-13T13:25:15;8.52;;;4.00;;
7989;SDS011;4040;42.848;23.034;2023-07-13T13:35:28;5.00;;;4.35;;
7989;SDS011;4040;42.848;23.034;2023-07-13T13:41:16;5.25;;;3.85;;
7989;SDS011;4040;42.848;23.034;2023-07-13T13:47:07;6.47;;;4.40;;
7989;SDS011;4040;42.848;23.034;2023-07-13T13:53:14;6.22;;;4.03;;
7989;SDS011;4040;42.848;23.034;2023-07-13T13:59:02;8.48;;;4.97;;
7989;SDS011;4040;42.848;23.034;2023-07-13T14:04:52;7.00;;;4.78;;
7989;SDS011;4040;42.848;23.034;2023-07-13T14:10:46;6.03;;;3.95;;
7989;SDS011;4040;42.848;23.034;2023-07-13T14:16:38;4.03;;;3.55;;
7989;SDS011;4040;42.848;23.034;2023-07-13T14:22:28;7.82;;;4.63;;
7989;SDS011;4040;42.848;23.034;2023-07-13T14:28:20;6.55;;;3.88;;
7989;SDS011;4040;42.848;23.034;2023-07-13T14:38:32;8.93;;;4.00;;
7989;SDS011;4040;42.848;23.034;2023-07-13T14:44:25;6.50;;;3.85;;
7989;SDS011;4040;42.848;23.034;2023-07-13T14:50:16;10.23;;;4.18;;
7989;SDS011;4040;42.848;23.034;2023-07-13T14:56:09;5.60;;;3.13;;
7989;SDS011;4040;42.848;23.034;2023-07-13T15:02:00;4.07;;;3.08;;
7989;SDS011;4040;42.848;23.034;2023-07-13T15:07:49;7.18;;;3.30;;
7989;SDS011;4040;42.848;23.034;2023-07-13T15:13:38;3.30;;;2.90;;
7989;SDS011;4040;42.848;23.034;2023-07-13T15:19:29;7.00;;;3.20;;
7989;SDS011;4040;42.848;23.034;2023-07-13T15:25:22;7.15;;;3.13;;
7989;SDS011;4040;42.848;23.034;2023-07-13T15:31:17;6.28;;;2.65;;
7989;SDS011;4040;42.848;23.034;2023-07-13T15:41:31;8.18;;;3.25;;
7989;SDS011;4040;42.848;23.034;2023-07-13T15:47:22;10.75;;;3.55;;
7989;SDS011;4040;42.848;23.034;2023-07-13T15:53:11;6.65;;;3.42;;
7989;SDS011;4040;42.848;23.034;2023-07-13T15:59:01;5.47;;;2.75;;
7989;SDS011;4040;42.848;23.034;2023-07-13T16:04:50;4.90;;;3.03;;
7989;SDS011;4040;42.848;23.034;2023-07-13T16:10:39;7.38;;;3.85;;
7989;SDS011;4040;42.848;23.034;2023-07-13T16:16:30;6.90;;;3.47;;
7989;SDS011;4040;42.848;23.034;2023-07-13T16:22:20;5.65;;;3.35;;
7989;SDS011;4040;42.848;23.034;2023-07-13T16:28:10;9.75;;;3.40;;
7989;SDS011;4040;42.848;23.034;2023-07-13T16:34:00;4.70;;;3.58;;
7989;SDS011;4040;42.848;23.034;2023-07-13T16:44:13;7.60;;;3.58;;
7989;SDS011;4040;42.848;23.034;2023-07-13T16:50:12;7.88;;;4.10;;
7989;SDS011;4040;42.848;23.034;2023-07-13T16:56:05;9.35;;;4.35;;
7989;SDS011;4040;42.848;23.034;2023-07-13T17:02:04;7.00;;;4.32;;
7989;SDS011;4040;42.848;23.034;2023-07-13T17:08:20;5.68;;;3.50;;
7989;SDS011;4040;42.848;23.034;2023-07-13T17:14:15;9.85;;;3.80;;
7989;SDS011;4040;42.848;23.034;2023-07-13T17:20:06;9.38;;;4.00;;
7989;SDS011;4040;42.848;23.034;2023-07-13T17:26:05;6.97;;;4.22;;
7989;SDS011;4040;42.848;23.034;2023-07-13T17:31:53;6.93;;;4.18;;
7989;SDS011;4040;42.848;23.034;2023-07-13T17:37:42;10.57;;;5.07;;
7989;SDS011;4040;42.848;23.034;2023-07-13T17:43:32;7.07;;;4.10;;
7989;SDS011;4040;42.848;23.034;2023-07-13T17:49:22;6.53;;;4.00;;
7989;SDS011;4040;42.848;23.034;2023-07-13T17:55:18;7.05;;;5.30;;
7989;SDS011;4040;42.848;23.034;2023-07-13T18:01:10;6.78;;;3.97;;
7989;SDS011;4040;42.848;23.034;2023-07-13T18:07:00;6.25;;;4.18;;
7989;SDS011;4040;42.848;23.034;2023-07-13T18:12:55;7.32;;;3.72;;
7989;SDS011;4040;42.848;23.034;2023-07-13T18:18:45;5.80;;;4.60;;
7989;SDS011;4040;42.848;23.034;2023-07-13T18:24:35;10.05;;;4.40;;
7989;SDS011;4040;42.848;23.034;2023-07-13T18:30:24;11.57;;;4.97;;
7989;SDS011;4040;42.848;23.034;2023-07-13T18:36:14;12.07;;;7.28;;
7989;SDS011;4040;42.848;23.034;2023-07-13T18:46:17;7.30;;;6.20;;
7989;SDS011;4040;42.848;23.034;2023-07-13T18:52:13;6.32;;;4.80;;
7989;SDS011;4040;42.848;23.034;2023-07-13T18:58:06;6.93;;;4.85;;
7989;SDS011;4040;42.848;23.034;2023-07-13T19:03:55;5.05;;;4.43;;
7989;SDS011;4040;42.848;23.034;2023-07-13T19:09:46;6.13;;;4.47;;
7989;SDS011;4040;42.848;23.034;2023-07-13T19:15:35;7.40;;;4.25;;
7989;SDS011;4040;42.848;23.034;2023-07-13T19:21:31;7.95;;;4.03;;
7989;SDS011;4040;42.848;23.034;2023-07-13T19:27:25;7.40;;;4.57;;
7989;SDS011;4040;42.848;23.034;2023-07-13T19:33:14;7.85;;;4.72;;
7989;SDS011;4040;42.848;23.034;2023-07-13T19:39:17;7.22;;;4.90;;
7989;SDS011;4040;42.848;23.034;2023-07-13T19:49:36;5.20;;;4.30;;
7989;SDS011;4040;42.848;23.034;2023-07-13T19:55:25;7.55;;;5.00;;
7989;SDS011;4040;42.848;23.034;2023-07-13T20:01:16;6.22;;;4.38;;
7989;SDS011;4040;42.848;23.034;2023-07-13T20:07:08;5.40;;;3.97;;
7989;SDS011;4040;42.848;23.034;2023-07-13T20:13:04;7.25;;;4.38;;
7989;SDS011;4040;42.848;23.034;2023-07-13T20:19:01;11.02;;;5.57;;
7989;SDS011;4040;42.848;23.034;2023-07-13T20:24:51;7.72;;;5.00;;
7989;SDS011;4040;42.848;23.034;2023-07-13T20:30:40;8.50;;;4.78;;
7989;SDS011;4040;42.848;23.034;2023-07-13T20:36:32;5.30;;;4.32;;
7989;SDS011;4040;42.848;23.034;2023-07-13T20:42:23;7.15;;;4.40;;
7989;SDS011;4040;42.848;23.034;2023-07-13T20:52:33;6.80;;;4.70;;
7989;SDS011;4040;42.848;23.034;2023-07-13T20:58:24;9.05;;;5.40;;
7989;SDS011;4040;42.848;23.034;2023-07-13T21:04:13;6.75;;;4.88;;
7989;SDS011;4040;42.848;23.034;2023-07-13T21:10:04;6.53;;;4.65;;
7989;SDS011;4040;42.848;23.034;2023-07-13T21:16:00;7.55;;;4.38;;
7989;SDS011;4040;42.848;23.034;2023-07-13T21:22:01;6.63;;;4.13;;
7989;SDS011;4040;42.848;23.034;2023-07-13T21:27:50;7.40;;;4.75;;
7989;SDS011;4040;42.848;23.034;2023-07-13T21:33:42;6.03;;;4.40;;
7989;SDS011;4040;42.848;23.034;2023-07-13T21:39:30;8.32;;;4.60;;
7989;SDS011;4040;42.848;23.034;2023-07-13T21:45:21;5.90;;;4.40;;
7989;SDS011;4040;42.848;23.034;2023-07-13T21:55:34;5.50;;;4.05;;
7989;SDS011;4040;42.848;23.034;2023-07-13T22:14:36;8.70;;;5.20;;
7989;SDS011;4040;42.848;23.034;2023-07-13T22:20:27;7.65;;;4.80;;
7989;SDS011;4040;42.848;23.034;2023-07-13T22:26:19;8.70;;;5.35;;
7989;SDS011;4040;42.848;23.034;2023-07-13T22:32:09;7.68;;;4.75;;
7989;SDS011;4040;42.848;23.034;2023-07-13T22:37:58;6.93;;;4.75;;
7989;SDS011;4040;42.848;23.034;2023-07-13T22:43:48;9.35;;;4.95;;
7989;SDS011;4040;42.848;23.034;2023-07-13T22:49:37;7.28;;;5.00;;
7989;SDS011;4040;42.848;23.034;2023-07-13T22:55:26;8.43;;;5.38;;
7989;SDS011;4040;42.848;23.034;2023-07-13T23:01:17;7.80;;;5.18;;
7989;SDS011;4040;42.848;23.034;2023-07-13T23:07:10;7.00;;;4.50;;
7989;SDS011;4040;42.848;23.034;2023-07-13T23:12:59;7.75;;;5.28;;
7989;SDS011;4040;42.848;23.034;2023-07-13T23:18:50;9.23;;;5.28;;
7989;SDS011;4040;42.848;23.034;2023-07-13T23:24:39;8.18;;;5.53;;
7989;SDS011;4040;42.848;23.034;2023-07-13T23:30:28;9.05;;;5.53;;
7989;SDS011;4040;42.848;23.034;2023-07-13T23:36:20;6.60;;;4.78;;
7989;SDS011;4040;42.848;23.034;2023-07-13T23:42:10;7.18;;;5.15;;
7989;SDS011;4040;42.848;23.034;2023-07-13T23:44:37;6.75;;;5.70;;
7989;SDS011;4040;42.848;23.034;2023-07-13T23:50:26;6.35;;;4.70;;
7989;SDS011;4040;42.848;23.034;2023-07-13T23:56:19;6.20;;;4.85;;
